createdAt,value
2018-12-25T00:02:25.459Z,101231.47
2018-12-25T00:04:53.280Z,101233.42
2018-12-25T00:07:21.251Z,101225.84
2018-12-25T00:10:08.480Z,101226.06
2018-12-25T00:12:36.357Z,101224.24
2018-12-25T00:15:04.274Z,101225.30
2018-12-25T00:17:32.088Z,101230.48
2018-12-25T00:20:00.705Z,101228.50
2018-12-25T00:22:28.526Z,101229.81
2018-12-25T00:24:56.319Z,101236.81
2018-12-25T00:27:24.149Z,101238.86
2018-12-25T00:29:51.954Z,101245.94
2018-12-25T00:32:19.737Z,101253.12
2018-12-25T00:34:47.545Z,101265.81
2018-12-25T00:37:15.327Z,101272.75
2018-12-25T00:39:43.093Z,101271.11
2018-12-25T00:42:10.877Z,101272.66
2018-12-25T00:44:38.720Z,101268.91
2018-12-25T00:47:06.831Z,101266.66
2018-12-25T00:49:34.630Z,101266.24
2018-12-25T00:52:02.686Z,101264.50
2018-12-25T00:54:30.589Z,101263.34
2018-12-25T00:56:58.404Z,101265.89
2018-12-25T00:59:26.626Z,101258.12
2018-12-25T01:01:59.513Z,101259.94
2018-12-25T01:04:29.598Z,101256.40
2018-12-25T01:06:57.365Z,101251.41
2018-12-25T01:09:25.164Z,101252.44
2018-12-25T01:11:53.023Z,101257.73
2018-12-25T01:14:20.831Z,101260.86
2018-12-25T01:16:49.089Z,101255.67
2018-12-25T01:19:23.231Z,101258.90
2018-12-25T01:21:52.398Z,101257.95
2018-12-25T01:24:20.174Z,101262.06
2018-12-25T01:26:47.962Z,101265.39
2018-12-25T01:29:27.717Z,101273.93
2018-12-25T01:31:55.696Z,101275.72
2018-12-25T01:34:23.533Z,101273.28
2018-12-25T01:36:51.327Z,101268.19
2018-12-25T01:39:19.127Z,101268.22
2018-12-25T01:41:46.947Z,101263.69
2018-12-25T01:44:14.699Z,101260.64
2018-12-25T01:46:42.651Z,101262.69
2018-12-25T01:49:10.842Z,101258.88
2018-12-25T01:51:38.703Z,101263.83
2018-12-25T01:54:06.516Z,101264.61
2018-12-25T01:56:34.357Z,101270.38
2018-12-25T01:59:02.155Z,101270.86
2018-12-25T02:01:29.967Z,101276.12
2018-12-25T02:03:57.745Z,101270.52
2018-12-25T02:06:25.528Z,101267.95
2018-12-25T02:08:53.306Z,101280.64
2018-12-25T02:11:21.135Z,101277.20
2018-12-25T02:13:48.953Z,101275.38
2018-12-25T02:16:16.777Z,101274.47
2018-12-25T02:18:44.526Z,101273.55
2018-12-25T02:21:12.596Z,101277.36
2018-12-25T02:23:40.368Z,101273.72
2018-12-25T02:26:08.176Z,101276.58
2018-12-25T02:28:36.095Z,101276.05
2018-12-25T02:31:09.185Z,101269.27
2018-12-25T02:33:36.961Z,101269.72
2018-12-25T02:36:04.766Z,101265.04
2018-12-25T02:38:32.544Z,101262.97
2018-12-25T02:41:00.346Z,101256.75
2018-12-25T02:43:28.138Z,101254.84
2018-12-25T02:45:55.909Z,101256.63
2018-12-25T02:48:23.732Z,101256.86
2018-12-25T02:50:56.827Z,101256.05
2018-12-25T02:53:24.656Z,101263.06
2018-12-25T02:55:52.754Z,101262.49
2018-12-25T02:58:22.708Z,101267.97
2018-12-25T03:00:50.865Z,101268.27
2018-12-25T03:03:18.684Z,101270.29
2018-12-25T03:05:46.601Z,101276.31
2018-12-25T03:08:14.459Z,101275.66
2018-12-25T03:10:47.334Z,101281.63
2018-12-25T03:13:15.158Z,101275.83
2018-12-25T03:15:42.926Z,101281.08
2018-12-25T03:18:10.726Z,101273.66
2018-12-25T03:20:38.596Z,101275.54
2018-12-25T03:23:06.359Z,101269.06
2018-12-25T03:25:34.129Z,101268.52
2018-12-25T03:28:01.926Z,101257.23
2018-12-25T03:30:29.777Z,101256.86
2018-12-25T03:32:57.621Z,101247.59
2018-12-25T03:35:25.385Z,101239.56
2018-12-25T03:37:53.217Z,101236.16
2018-12-25T03:40:21.062Z,101237.45
2018-12-25T03:42:48.877Z,101238.50
2018-12-25T03:45:16.658Z,101233.48
2018-12-25T03:47:44.450Z,101236.82
2018-12-25T03:50:12.312Z,101228.26
2018-12-25T03:52:40.082Z,101231.59
2018-12-25T03:55:07.942Z,101234.34
2018-12-25T03:57:35.695Z,101231.92
2018-12-25T04:00:04.097Z,101224.69
2018-12-25T04:02:32.063Z,101231.78
2018-12-25T04:04:59.839Z,101222.08
2018-12-25T04:07:28.371Z,101220.45
2018-12-25T04:09:56.177Z,101224.70
2018-12-25T04:12:23.985Z,101225.02
2018-12-25T04:14:53.798Z,101222.20
2018-12-25T04:17:21.583Z,101217.35
2018-12-25T04:19:49.386Z,101217.05
2018-12-25T04:22:17.246Z,101216.49
2018-12-25T04:24:45.102Z,101216.09
2018-12-25T04:27:12.969Z,101216.73
2018-12-25T04:29:40.839Z,101214.87
2018-12-25T04:32:21.105Z,101209.34
2018-12-25T04:34:50.633Z,101209.95
2018-12-25T04:37:18.490Z,101201.84
2018-12-25T04:39:46.264Z,101195.64
2018-12-25T04:42:14.043Z,101199.22
2018-12-25T04:44:41.824Z,101194.38
2018-12-25T04:47:09.647Z,101200.47
2018-12-25T04:49:37.444Z,101206.59
2018-12-25T04:52:10.454Z,101206.45
2018-12-25T04:54:38.281Z,101216.23
2018-12-25T04:57:06.064Z,101220.69
2018-12-25T04:59:33.837Z,101222.59
2018-12-25T05:02:01.759Z,101218.74
2018-12-25T05:04:29.567Z,101221.89
2018-12-25T05:06:57.393Z,101233.44
2018-12-25T05:09:25.161Z,101232.61
2018-12-25T05:11:53.124Z,101244.05
2018-12-25T05:14:20.941Z,101246.97
2018-12-25T05:16:48.753Z,101242.47
2018-12-25T05:19:16.558Z,101238.39
2018-12-25T05:21:44.506Z,101244.22
2018-12-25T05:24:12.319Z,101243.37
2018-12-25T05:26:40.073Z,101230.98
2018-12-25T05:29:07.899Z,101236.68
2018-12-25T05:31:37.193Z,101232.38
2018-12-25T05:34:05.000Z,101231.97
2018-12-25T05:36:32.794Z,101232.36
2018-12-25T05:39:00.602Z,101240.49
2018-12-25T05:41:28.466Z,101234.48
2018-12-25T05:43:56.247Z,101221.34
2018-12-25T05:46:24.026Z,101225.78
2018-12-25T05:48:53.284Z,101227.84
2018-12-25T05:51:21.054Z,101231.36
2018-12-25T05:53:51.174Z,101240.36
2018-12-25T05:56:18.954Z,101223.84
2018-12-25T05:58:46.768Z,101229.27
2018-12-25T06:01:14.541Z,101228.44
2018-12-25T06:03:42.326Z,101224.28
2018-12-25T06:06:10.067Z,101218.41
2018-12-25T06:08:37.878Z,101217.09
2018-12-25T06:11:05.631Z,101218.38
2018-12-25T06:13:33.425Z,101209.28
2018-12-25T06:16:01.212Z,101215.78
2018-12-25T06:18:28.999Z,101218.28
2018-12-25T06:20:56.778Z,101227.77
2018-12-25T06:23:24.586Z,101234.08
2018-12-25T06:25:52.348Z,101240.44
2018-12-25T06:28:20.444Z,101244.69
2018-12-25T06:30:48.271Z,101245.81
2018-12-25T06:33:16.177Z,101244.46
2018-12-25T06:35:44.069Z,101239.34
2018-12-25T06:38:11.874Z,101244.20
2018-12-25T06:40:45.019Z,101244.70
2018-12-25T06:43:12.860Z,101243.16
2018-12-25T06:45:40.621Z,101243.27
2018-12-25T06:48:08.432Z,101244.09
2018-12-25T06:50:36.387Z,101234.46
2018-12-25T06:53:04.212Z,101234.72
2018-12-25T06:55:32.050Z,101227.11
2018-12-25T06:58:00.040Z,101222.04
2018-12-25T07:00:27.775Z,101222.83
2018-12-25T07:02:55.593Z,101228.45
2018-12-25T07:05:23.366Z,101222.84
2018-12-25T07:07:51.206Z,101218.77
2018-12-25T07:10:19.419Z,101213.95
2018-12-25T07:12:47.263Z,101223.04
2018-12-25T07:15:15.072Z,101218.51
2018-12-25T07:17:42.899Z,101219.78
2018-12-25T07:20:10.682Z,101218.92
2018-12-25T07:22:38.504Z,101215.42
2018-12-25T07:25:07.403Z,101212.76
2018-12-25T07:27:35.245Z,101209.23
2018-12-25T07:30:03.241Z,101214.14
2018-12-25T07:32:31.090Z,101210.25
2018-12-25T07:34:58.806Z,101207.13
2018-12-25T07:37:26.600Z,101205.77
2018-12-25T07:39:54.385Z,101208.70
2018-12-25T07:42:22.208Z,101204.08
2018-12-25T07:44:49.997Z,101193.92
2018-12-25T07:47:17.743Z,101185.28
2018-12-25T07:49:45.559Z,101187.84
2018-12-25T07:52:13.367Z,101198.20
2018-12-25T07:54:41.584Z,101197.02
2018-12-25T07:57:09.351Z,101218.50
2018-12-25T07:59:37.164Z,101216.00
2018-12-25T08:02:05.230Z,101228.05
2018-12-25T08:04:33.074Z,101218.44
2018-12-25T08:07:00.892Z,101214.37
2018-12-25T08:09:28.701Z,101209.55
2018-12-25T08:11:56.579Z,101215.70
2018-12-25T08:14:24.448Z,101210.98
2018-12-25T08:16:52.229Z,101202.05
2018-12-25T08:19:20.009Z,101199.19
2018-12-25T08:21:47.830Z,101198.42
2018-12-25T08:24:15.688Z,101195.22
2018-12-25T08:26:43.489Z,101193.11
2018-12-25T08:29:11.230Z,101192.35
2018-12-25T08:31:39.082Z,101194.34
2018-12-25T08:34:06.881Z,101199.69
2018-12-25T08:36:36.540Z,101199.92
2018-12-25T08:39:06.655Z,101207.34
2018-12-25T08:41:34.413Z,101211.34
2018-12-25T08:44:02.186Z,101222.58
2018-12-25T08:46:29.984Z,101214.97
2018-12-25T08:48:57.760Z,101218.56
2018-12-25T08:51:25.744Z,101223.13
2018-12-25T08:53:53.530Z,101214.28
2018-12-25T08:56:21.720Z,101219.38
2018-12-25T08:58:49.512Z,101225.32
2018-12-25T09:01:17.316Z,101229.88
2018-12-25T09:03:45.158Z,101226.30
2018-12-25T09:06:16.175Z,101230.70
2018-12-25T09:08:44.051Z,101232.77
2018-12-25T09:11:11.780Z,101229.33
2018-12-25T09:13:39.557Z,101226.47
2018-12-25T09:16:07.349Z,101220.95
2018-12-25T09:18:35.216Z,101216.22
2018-12-25T09:21:03.038Z,101211.61
2018-12-25T09:23:30.867Z,101204.84
2018-12-25T09:25:58.711Z,101209.72
2018-12-25T09:28:26.525Z,101211.80
2018-12-25T09:30:54.338Z,101205.89
2018-12-25T09:33:22.074Z,101195.87
2018-12-25T09:35:49.869Z,101210.64
2018-12-25T09:38:17.778Z,101202.13
2018-12-25T09:40:45.646Z,101195.55
2018-12-25T09:43:13.480Z,101196.83
2018-12-25T09:45:43.172Z,101209.80
2018-12-25T09:48:13.370Z,101208.16
2018-12-25T09:50:51.875Z,101212.10
2018-12-25T09:53:19.646Z,101209.85
2018-12-25T09:55:47.545Z,101205.17
2018-12-25T09:58:15.383Z,101197.44
2018-12-25T10:00:44.135Z,101187.28
2018-12-25T10:03:14.895Z,101184.69
2018-12-25T10:05:46.753Z,101196.66
2018-12-25T10:08:15.939Z,101190.36
2018-12-25T10:10:44.674Z,101186.84
2018-12-25T10:13:12.466Z,101180.03
2018-12-25T10:15:40.213Z,101176.78
2018-12-25T10:18:08.042Z,101167.27
2018-12-25T10:20:35.844Z,101160.80
2018-12-25T10:23:04.876Z,101167.08
2018-12-25T10:25:36.034Z,101159.20
2018-12-25T10:28:03.862Z,101161.03
2018-12-25T10:30:33.338Z,101156.42
2018-12-25T10:33:01.440Z,101160.84
2018-12-25T10:35:29.338Z,101168.33
2018-12-25T10:37:57.148Z,101177.64
2018-12-25T10:40:24.952Z,101179.48
2018-12-25T10:42:54.762Z,101172.55
2018-12-25T10:45:23.857Z,101170.78
2018-12-25T10:47:54.043Z,101169.41
2018-12-25T10:50:22.192Z,101169.42
2018-12-25T10:52:51.159Z,101168.75
2018-12-25T10:55:21.525Z,101173.29
2018-12-25T10:57:49.354Z,101170.62
2018-12-25T11:00:17.162Z,101168.53
2018-12-25T11:02:44.994Z,101156.15
2018-12-25T11:05:12.785Z,101154.54
2018-12-25T11:07:40.590Z,101141.89
2018-12-25T11:10:09.525Z,101147.67
2018-12-25T11:12:37.318Z,101144.02
2018-12-25T11:15:06.366Z,101141.23
2018-12-25T11:17:34.185Z,101138.31
2018-12-25T11:20:01.998Z,101128.14
2018-12-25T11:22:29.782Z,101130.73
2018-12-25T11:24:57.568Z,101125.36
2018-12-25T11:27:25.392Z,101115.70
2018-12-25T11:29:53.204Z,101120.03
2018-12-25T11:32:21.163Z,101119.76
2018-12-25T11:34:48.985Z,101116.88
2018-12-25T11:37:17.343Z,101117.88
2018-12-25T11:39:45.561Z,101119.85
2018-12-25T11:42:13.777Z,101126.48
2018-12-25T11:44:42.074Z,101128.53
2018-12-25T11:47:09.870Z,101123.33
2018-12-25T11:49:37.685Z,101119.55
2018-12-25T11:52:05.726Z,101128.17
2018-12-25T11:54:33.510Z,101124.80
2018-12-25T11:57:01.368Z,101128.19
2018-12-25T11:59:29.310Z,101125.13
2018-12-25T12:02:02.386Z,101121.28
2018-12-25T12:04:30.159Z,101129.56
2018-12-25T12:06:59.584Z,101128.95
2018-12-25T12:09:27.375Z,101125.69
2018-12-25T12:12:19.871Z,101117.92
2018-12-25T12:14:47.708Z,101124.55
2018-12-25T12:17:15.474Z,101112.72
2018-12-25T12:19:43.331Z,101112.76
2018-12-25T12:22:11.175Z,101109.98
2018-12-25T12:24:40.784Z,101119.73
2018-12-25T12:27:08.531Z,101123.54
2018-12-25T12:29:36.375Z,101120.44
2018-12-25T12:32:04.199Z,101110.97
2018-12-25T12:34:32.028Z,101109.56
2018-12-25T12:36:59.895Z,101114.46
2018-12-25T12:39:27.714Z,101124.14
2018-12-25T12:41:55.498Z,101130.56
2018-12-25T12:44:23.296Z,101134.95
2018-12-25T12:46:51.107Z,101138.22
2018-12-25T12:49:18.902Z,101136.88
2018-12-25T12:51:46.747Z,101138.95
2018-12-25T12:54:14.534Z,101139.05
2018-12-25T12:56:51.413Z,101133.97
2018-12-25T12:59:19.241Z,101142.19
2018-12-25T13:01:47.174Z,101143.27
2018-12-25T13:04:15.016Z,101147.75
2018-12-25T13:06:42.914Z,101151.58
2018-12-25T13:09:10.710Z,101156.79
2018-12-25T13:11:38.543Z,101162.22
2018-12-25T13:14:06.334Z,101168.50
2018-12-25T13:16:34.181Z,101171.41
2018-12-25T13:19:01.986Z,101170.10
2018-12-25T13:21:29.788Z,101167.88
2018-12-25T13:23:57.584Z,101162.05
2018-12-25T13:26:33.434Z,101169.91
2018-12-25T13:29:01.233Z,101172.30
2018-12-25T13:31:29.053Z,101173.08
2018-12-25T13:33:56.883Z,101173.02
2018-12-25T13:36:24.682Z,101174.81
2018-12-25T13:38:52.560Z,101179.87
2018-12-25T13:41:20.548Z,101184.52
2018-12-25T13:43:48.334Z,101187.62
2018-12-25T13:46:16.129Z,101182.91
2018-12-25T13:48:43.922Z,101181.34
2018-12-25T13:51:11.835Z,101183.53
2018-12-25T13:53:39.777Z,101188.70
2018-12-25T13:56:07.578Z,101190.56
2018-12-25T13:58:35.453Z,101193.34
2018-12-25T14:01:13.408Z,101188.02
2018-12-25T14:03:41.234Z,101190.05
2018-12-25T14:06:09.045Z,101185.91
2018-12-25T14:08:36.801Z,101191.38
2018-12-25T14:11:04.765Z,101188.13
2018-12-25T14:13:32.534Z,101189.27
2018-12-25T14:16:00.307Z,101198.28
2018-12-25T14:18:28.121Z,101196.18
2018-12-25T14:20:55.966Z,101204.11
2018-12-25T14:23:24.243Z,101200.63
2018-12-25T14:25:52.053Z,101204.42
2018-12-25T14:28:19.873Z,101202.38
2018-12-25T14:30:48.077Z,101203.31
2018-12-25T14:33:15.839Z,101206.86
2018-12-25T14:35:43.655Z,101209.95
2018-12-25T14:38:11.405Z,101215.36
2018-12-25T14:40:44.400Z,101214.87
2018-12-25T14:43:12.194Z,101217.09
2018-12-25T14:45:40.110Z,101217.94
2018-12-25T14:48:07.922Z,101217.95
2018-12-25T14:50:35.759Z,101221.44
2018-12-25T14:53:19.810Z,101220.19
2018-12-25T14:55:45.430Z,101216.34
2018-12-25T14:58:13.275Z,101212.19
2018-12-25T15:00:41.226Z,101227.00
2018-12-25T15:03:08.998Z,101226.77
2018-12-25T15:05:36.817Z,101222.53
2018-12-25T15:08:04.709Z,101217.73
2018-12-25T15:11:03.141Z,101223.84
2018-12-25T15:13:30.918Z,101221.61
2018-12-25T15:15:58.750Z,101228.67
2018-12-25T15:18:26.571Z,101227.91
2018-12-25T15:21:09.499Z,101227.73
2018-12-25T15:23:37.450Z,101232.73
2018-12-25T15:26:05.354Z,101233.55
2018-12-25T15:28:33.184Z,101230.25
2018-12-25T15:31:00.993Z,101233.58
2018-12-25T15:33:28.764Z,101234.71
2018-12-25T15:35:57.915Z,101232.66
2018-12-25T15:38:25.836Z,101231.98
2018-12-25T15:40:56.576Z,101234.52
2018-12-25T15:43:24.425Z,101229.58
2018-12-25T15:45:52.290Z,101230.88
2018-12-25T15:48:20.155Z,101229.22
2018-12-25T15:50:48.213Z,101230.41
2018-12-25T15:53:16.263Z,101231.27
2018-12-25T15:55:46.170Z,101226.27
2018-12-25T15:58:18.936Z,101237.55
2018-12-25T16:01:01.794Z,101238.75
2018-12-25T16:03:29.670Z,101236.99
2018-12-25T16:05:57.450Z,101234.92
2018-12-25T16:08:25.253Z,101231.67
2018-12-25T16:10:53.133Z,101231.23
2018-12-25T16:13:20.997Z,101226.00
2018-12-25T16:15:48.798Z,101223.34
2018-12-25T16:18:16.686Z,101224.98
2018-12-25T16:20:44.539Z,101215.93
2018-12-25T16:23:12.368Z,101173.90
2018-12-25T16:25:40.165Z,101206.10
2018-12-25T16:28:08.009Z,101201.30
2018-12-25T16:30:35.825Z,101202.59
2018-12-25T16:33:03.654Z,101205.09
2018-12-25T16:35:31.467Z,101210.28
2018-12-25T16:37:59.298Z,101211.47
2018-12-25T16:40:27.108Z,101205.17
2018-12-25T16:42:54.941Z,101204.05
2018-12-25T16:45:22.753Z,101206.39
2018-12-25T16:47:50.597Z,101211.82
2018-12-25T16:50:19.726Z,101206.97
2018-12-25T16:52:47.536Z,101205.77
2018-12-25T16:55:15.430Z,101203.75
2018-12-25T16:57:43.231Z,101201.11
2018-12-25T17:00:11.052Z,101197.61
2018-12-25T17:02:54.211Z,101194.73
2018-12-25T17:05:22.030Z,101194.73
2018-12-25T17:07:49.817Z,101193.03
2018-12-25T17:10:17.626Z,101188.88
2018-12-25T17:12:45.488Z,101193.31
2018-12-25T17:15:13.312Z,101194.52
2018-12-25T17:17:41.103Z,101193.38
2018-12-25T17:20:09.090Z,101192.53
2018-12-25T17:22:36.914Z,101196.10
2018-12-25T17:25:04.679Z,101192.27
2018-12-25T17:27:32.481Z,101197.52
2018-12-25T17:30:00.344Z,101200.48
2018-12-25T17:32:28.271Z,101203.21
2018-12-25T17:34:58.792Z,101206.55
2018-12-25T17:37:29.513Z,101211.14
2018-12-25T17:39:57.504Z,101212.48
2018-12-25T17:42:35.728Z,101210.30
2018-12-25T17:45:07.899Z,101208.06
2018-12-25T17:47:38.000Z,101212.71
2018-12-25T17:50:05.772Z,101210.55
2018-12-25T17:52:33.538Z,101201.16
2018-12-25T17:55:01.361Z,101210.00
2018-12-25T17:57:29.197Z,101212.16
2018-12-25T17:59:59.441Z,101216.91
2018-12-25T18:02:27.248Z,101217.11
2018-12-25T18:04:57.724Z,101217.16
2018-12-25T18:07:25.787Z,101219.66
2018-12-25T18:09:53.592Z,101215.08
2018-12-25T18:12:21.379Z,101228.57
2018-12-25T18:14:49.211Z,101232.79
2018-12-25T18:17:18.928Z,101232.19
2018-12-25T18:19:46.725Z,101225.67
2018-12-25T18:22:14.537Z,101226.19
2018-12-25T18:24:42.377Z,101227.34
2018-12-25T18:27:10.172Z,101230.25
2018-12-25T18:29:38.006Z,101236.20
2018-12-25T18:32:05.818Z,101239.48
2018-12-25T18:34:33.611Z,101233.25
2018-12-25T18:37:01.406Z,101230.66
2018-12-25T18:39:48.737Z,101239.11
2018-12-25T18:42:23.166Z,101233.06
2018-12-25T18:44:46.454Z,101240.28
2018-12-25T18:47:14.256Z,101243.59
2018-12-25T18:49:42.079Z,101241.78
2018-12-25T18:52:40.384Z,101239.51
2018-12-25T18:55:08.170Z,101240.86
2018-12-25T18:57:36.023Z,101242.74
2018-12-25T19:00:05.918Z,101244.05
2018-12-25T19:02:33.846Z,101242.43
2018-12-25T19:05:01.640Z,101236.53
2018-12-25T19:07:29.432Z,101245.12
2018-12-25T19:09:57.264Z,101247.56
2018-12-25T19:12:25.491Z,101249.56
2018-12-25T19:15:23.320Z,101249.48
2018-12-25T19:17:53.864Z,101250.14
2018-12-25T19:20:36.708Z,101243.95
2018-12-25T19:23:04.531Z,101237.76
2018-12-25T19:25:32.367Z,101241.95
2018-12-25T19:28:00.181Z,101236.53
2018-12-25T19:30:30.856Z,101230.70
2018-12-25T19:32:58.615Z,101232.83
2018-12-25T19:35:26.473Z,101230.70
2018-12-25T19:37:54.324Z,101234.16
2018-12-25T19:40:22.124Z,101229.48
2018-12-25T19:42:49.991Z,101227.41
2018-12-25T19:45:19.680Z,101229.23
2018-12-25T19:47:47.915Z,101225.25
2018-12-25T19:50:15.857Z,101223.70
2018-12-25T19:52:43.817Z,101217.88
2018-12-25T19:55:11.718Z,101218.61
2018-12-25T19:57:41.566Z,101214.98
2018-12-25T20:00:12.249Z,101208.95
2018-12-25T20:03:02.919Z,101207.44
2018-12-25T20:06:36.739Z,101200.67
2018-12-25T20:09:59.322Z,101201.25
2018-12-25T20:13:32.273Z,101203.00
2018-12-25T20:17:02.933Z,101203.50
2018-12-25T20:20:42.519Z,101196.89
2018-12-25T20:24:02.687Z,101197.34
2018-12-25T20:27:20.346Z,101198.33
2018-12-25T20:30:34.217Z,101194.17
2018-12-25T20:34:02.477Z,101197.75
2018-12-25T20:37:46.513Z,101189.00
2018-12-25T20:41:29.672Z,101182.64
2018-12-25T20:45:07.635Z,101178.89
2018-12-25T20:48:48.372Z,101178.94
2018-12-25T20:52:11.715Z,101173.31
2018-12-25T20:55:58.856Z,101168.87
2018-12-25T20:59:40.484Z,101172.08
2018-12-25T21:03:21.661Z,101173.08
2018-12-25T21:06:37.716Z,101173.77
2018-12-25T21:10:02.717Z,101170.58
2018-12-25T21:13:27.644Z,101158.69
2018-12-25T21:17:03.000Z,101158.58
2018-12-25T21:21:11.392Z,101155.62
2018-12-25T21:24:35.209Z,101148.48
2018-12-25T21:27:33.085Z,101157.11
2018-12-25T21:30:07.766Z,101149.53
2018-12-25T21:32:58.406Z,101147.56
2018-12-25T21:35:27.018Z,101134.59
2018-12-25T21:37:57.076Z,101138.03
2018-12-25T21:40:26.360Z,101139.19
2018-12-25T21:42:56.697Z,101132.20
2018-12-25T21:45:25.219Z,101137.66
2018-12-25T21:47:54.565Z,101136.56
2018-12-25T21:50:23.723Z,101132.16
2018-12-25T21:52:53.076Z,101129.98
2018-12-25T21:55:21.564Z,101130.59
2018-12-25T21:57:51.168Z,101130.45
2018-12-25T22:00:21.908Z,101141.09
2018-12-25T22:02:51.983Z,101141.64
2018-12-25T22:05:20.753Z,101142.89
2018-12-25T22:07:48.546Z,101142.44
2018-12-25T22:10:16.373Z,101145.27
2018-12-25T22:12:49.234Z,101146.82
2018-12-25T22:15:17.030Z,101148.38
2018-12-25T22:17:44.855Z,101145.08
2018-12-25T22:20:34.518Z,101146.08
2018-12-25T22:23:02.311Z,101141.57
2018-12-25T22:25:30.135Z,101140.77
2018-12-25T22:27:57.903Z,101143.48
2018-12-25T22:30:25.735Z,101141.48
2018-12-25T22:32:53.549Z,101140.66
2018-12-25T22:35:21.418Z,101140.44
2018-12-25T22:37:49.231Z,101137.17
2018-12-25T22:40:17.050Z,101133.94
2018-12-25T22:42:44.857Z,101139.08
2018-12-25T22:45:12.645Z,101147.12
2018-12-25T22:47:40.391Z,101136.14
2018-12-25T22:50:08.234Z,101135.17
2018-12-25T22:52:36.061Z,101133.98
2018-12-25T22:55:04.497Z,101137.12
2018-12-25T22:57:32.414Z,101137.34
2018-12-25T23:00:00.267Z,101137.27
2018-12-25T23:02:28.099Z,101124.53
2018-12-25T23:04:55.941Z,101118.17
2018-12-25T23:07:23.746Z,101118.47
2018-12-25T23:09:51.536Z,101116.75
2018-12-25T23:12:19.325Z,101110.48
2018-12-25T23:14:47.134Z,101120.70
2018-12-25T23:17:15.002Z,101124.05
2018-12-25T23:19:42.835Z,101120.88
2018-12-25T23:22:10.678Z,101118.20
2018-12-25T23:24:38.469Z,101124.40
2018-12-25T23:27:06.247Z,101125.19
2018-12-25T23:29:34.094Z,101128.81
2018-12-25T23:32:07.089Z,101124.50
2018-12-25T23:34:34.877Z,101130.05
2018-12-25T23:37:02.606Z,101138.78
2018-12-25T23:39:30.410Z,101135.28
2018-12-25T23:41:59.433Z,101131.63
2018-12-25T23:44:27.393Z,101128.73
2018-12-25T23:46:55.186Z,101125.80
2018-12-25T23:49:25.123Z,101124.85
2018-12-25T23:51:52.982Z,101131.30
2018-12-25T23:54:20.746Z,101114.95
2018-12-25T23:56:49.507Z,101127.02
2018-12-25T23:59:17.307Z,101122.49
